sensor_id;sensor_type;location;lat;lon;timestamp;P1;durP1;ratioP1;P2;durP2;ratioP2
27199;SDS011;14714;48.106;11.546;2023-02-03T00:01:55;7.75;;;2.40;;
27199;SDS011;14714;48.106;11.546;2023-02-03T00:04:22;4.55;;;2.20;;
27199;SDS011;14714;48.106;11.546;2023-02-03T00:06:49;4.70;;;2.20;;
27199;SDS011;14714;48.106;11.546;2023-02-03T00:09:16;5.32;;;2.10;;
27199;SDS011;14714;48.106;11.546;2023-02-03T00:11:44;4.05;;;1.95;;
27199;SDS011;14714;48.106;11.546;2023-02-03T00:14:10;3.33;;;2.03;;
27199;SDS011;14714;48.106;11.546;2023-02-03T00:16:37;4.30;;;2.13;;
27199;SDS011;14714;48.106;11.546;2023-02-03T00:19:04;6.88;;;1.98;;
27199;SDS011;14714;48.106;11.546;2023-02-03T00:21:31;4.43;;;2.30;;
27199;SDS011;14714;48.106;11.546;2023-02-03T00:23:58;5.85;;;1.95;;
27199;SDS011;14714;48.106;11.546;2023-02-03T00:26:25;3.70;;;1.95;;
27199;SDS011;14714;48.106;11.546;2023-02-03T00:28:53;8.05;;;2.63;;
27199;SDS011;14714;48.106;11.546;2023-02-03T00:31:21;5.20;;;2.30;;
27199;SDS011;14714;48.106;11.546;2023-02-03T00:33:53;4.93;;;2.00;;
27199;SDS011;14714;48.106;11.546;2023-02-03T00:36:21;3.50;;;1.90;;
27199;SDS011;14714;48.106;11.546;2023-02-03T00:38:49;3.50;;;1.70;;
27199;SDS011;14714;48.106;11.546;2023-02-03T00:41:16;5.72;;;1.90;;
27199;SDS011;14714;48.106;11.546;2023-02-03T00:43:44;2.80;;;1.75;;
27199;SDS011;14714;48.106;11.546;2023-02-03T00:46:11;5.90;;;2.00;;
27199;SDS011;14714;48.106;11.546;2023-02-03T00:48:38;3.58;;;1.70;;
27199;SDS011;14714;48.106;11.546;2023-02-03T00:51:05;4.28;;;1.80;;
27199;SDS011;14714;48.106;11.546;2023-02-03T00:53:32;5.88;;;2.15;;
27199;SDS011;14714;48.106;11.546;2023-02-03T00:55:59;4.07;;;2.00;;
27199;SDS011;14714;48.106;11.546;2023-02-03T00:58:26;8.25;;;1.88;;
27199;SDS011;14714;48.106;11.546;2023-02-03T01:00:53;7.15;;;2.00;;
27199;SDS011;14714;48.106;11.546;2023-02-03T01:03:21;3.08;;;1.60;;
27199;SDS011;14714;48.106;11.546;2023-02-03T01:05:48;4.78;;;2.20;;
27199;SDS011;14714;48.106;11.546;2023-02-03T01:08:15;4.75;;;2.00;;
27199;SDS011;14714;48.106;11.546;2023-02-03T01:10:42;6.38;;;2.38;;
27199;SDS011;14714;48.106;11.546;2023-02-03T01:13:08;2.63;;;1.52;;
27199;SDS011;14714;48.106;11.546;2023-02-03T01:15:35;4.20;;;2.10;;
27199;SDS011;14714;48.106;11.546;2023-02-03T01:18:02;7.10;;;1.95;;
27199;SDS011;14714;48.106;11.546;2023-02-03T01:20:29;3.63;;;1.80;;
27199;SDS011;14714;48.106;11.546;2023-02-03T01:22:56;2.85;;;1.65;;
27199;SDS011;14714;48.106;11.546;2023-02-03T01:25:22;2.95;;;1.73;;
27199;SDS011;14714;48.106;11.546;2023-02-03T01:27:49;2.33;;;1.73;;
27199;SDS011;14714;48.106;11.546;2023-02-03T01:30:16;2.42;;;1.80;;
27199;SDS011;14714;48.106;11.546;2023-02-03T01:32:43;5.30;;;2.00;;
27199;SDS011;14714;48.106;11.546;2023-02-03T01:35:10;4.30;;;1.90;;
27199;SDS011;14714;48.106;11.546;2023-02-03T01:37:37;4.68;;;2.08;;
27199;SDS011;14714;48.106;11.546;2023-02-03T01:40:03;5.75;;;2.10;;
27199;SDS011;14714;48.106;11.546;2023-02-03T01:42:31;3.42;;;1.63;;
27199;SDS011;14714;48.106;11.546;2023-02-03T01:44:59;4.82;;;2.33;;
27199;SDS011;14714;48.106;11.546;2023-02-03T01:47:27;4.38;;;1.75;;
27199;SDS011;14714;48.106;11.546;2023-02-03T01:50:06;4.53;;;1.90;;
27199;SDS011;14714;48.106;11.546;2023-02-03T01:52:35;5.57;;;1.80;;
27199;SDS011;14714;48.106;11.546;2023-02-03T01:55:04;3.45;;;1.75;;
27199;SDS011;14714;48.106;11.546;2023-02-03T01:57:35;5.05;;;1.90;;
27199;SDS011;14714;48.106;11.546;2023-02-03T02:00:07;2.92;;;1.90;;
27199;SDS011;14714;48.106;11.546;2023-02-03T02:02:34;5.22;;;1.80;;
27199;SDS011;14714;48.106;11.546;2023-02-03T02:05:04;6.18;;;1.80;;
27199;SDS011;14714;48.106;11.546;2023-02-03T02:07:35;4.63;;;1.80;;
27199;SDS011;14714;48.106;11.546;2023-02-03T02:10:03;3.45;;;1.70;;
27199;SDS011;14714;48.106;11.546;2023-02-03T02:12:30;5.15;;;1.80;;
27199;SDS011;14714;48.106;11.546;2023-02-03T02:14:57;4.85;;;1.70;;
27199;SDS011;14714;48.106;11.546;2023-02-03T02:23:20;3.88;;;1.70;;
27199;SDS011;14714;48.106;11.546;2023-02-03T02:26:22;5.20;;;1.65;;
27199;SDS011;14714;48.106;11.546;2023-02-03T02:34:13;4.40;;;1.80;;
27199;SDS011;14714;48.106;11.546;2023-02-03T02:37:08;4.50;;;1.70;;
27199;SDS011;14714;48.106;11.546;2023-02-03T02:45:30;3.67;;;1.75;;
27199;SDS011;14714;48.106;11.546;2023-02-03T02:48:03;4.97;;;1.60;;
27199;SDS011;14714;48.106;11.546;2023-02-03T02:50:40;5.75;;;2.00;;
27199;SDS011;14714;48.106;11.546;2023-02-03T02:53:11;4.90;;;1.80;;
27199;SDS011;14714;48.106;11.546;2023-02-03T02:55:40;3.38;;;1.98;;
27199;SDS011;14714;48.106;11.546;2023-02-03T02:58:09;2.92;;;1.50;;
27199;SDS011;14714;48.106;11.546;2023-02-03T03:00:39;5.40;;;1.65;;
27199;SDS011;14714;48.106;11.546;2023-02-03T03:05:55;3.70;;;1.50;;
27199;SDS011;14714;48.106;11.546;2023-02-03T03:11:15;4.82;;;1.60;;
27199;SDS011;14714;48.106;11.546;2023-02-03T03:13:52;3.70;;;2.05;;
27199;SDS011;14714;48.106;11.546;2023-02-03T03:16:28;3.65;;;1.50;;
27199;SDS011;14714;48.106;11.546;2023-02-03T03:18:59;3.63;;;1.58;;
27199;SDS011;14714;48.106;11.546;2023-02-03T03:21:31;4.72;;;1.80;;
27199;SDS011;14714;48.106;11.546;2023-02-03T03:24:04;3.78;;;1.85;;
27199;SDS011;14714;48.106;11.546;2023-02-03T03:26:38;2.83;;;1.95;;
27199;SDS011;14714;48.106;11.546;2023-02-03T03:29:14;4.35;;;1.65;;
27199;SDS011;14714;48.106;11.546;2023-02-03T03:32:11;7.22;;;2.65;;
27199;SDS011;14714;48.106;11.546;2023-02-03T03:34:38;3.72;;;1.60;;
27199;SDS011;14714;48.106;11.546;2023-02-03T03:39:55;4.38;;;1.63;;
27199;SDS011;14714;48.106;11.546;2023-02-03T03:42:26;3.00;;;1.33;;
27199;SDS011;14714;48.106;11.546;2023-02-03T03:48:25;6.13;;;1.67;;
27199;SDS011;14714;48.106;11.546;2023-02-03T03:51:07;7.40;;;2.00;;
27199;SDS011;14714;48.106;11.546;2023-02-03T03:53:56;2.88;;;1.60;;
27199;SDS011;14714;48.106;11.546;2023-02-03T03:56:36;8.32;;;1.88;;
27199;SDS011;14714;48.106;11.546;2023-02-03T03:59:30;1.88;;;1.38;;
27199;SDS011;14714;48.106;11.546;2023-02-03T04:01:59;3.25;;;1.38;;
27199;SDS011;14714;48.106;11.546;2023-02-03T04:04:30;3.97;;;1.63;;
27199;SDS011;14714;48.106;11.546;2023-02-03T04:06:59;3.58;;;1.40;;
27199;SDS011;14714;48.106;11.546;2023-02-03T04:09:26;3.42;;;1.60;;
27199;SDS011;14714;48.106;11.546;2023-02-03T04:11:53;2.70;;;1.60;;
27199;SDS011;14714;48.106;11.546;2023-02-03T04:14:26;2.40;;;1.40;;
27199;SDS011;14714;48.106;11.546;2023-02-03T04:16:57;4.55;;;1.80;;
27199;SDS011;14714;48.106;11.546;2023-02-03T04:19:25;4.00;;;1.65;;
27199;SDS011;14714;48.106;11.546;2023-02-03T04:21:52;2.95;;;1.30;;
27199;SDS011;14714;48.106;11.546;2023-02-03T04:24:19;2.80;;;1.50;;
27199;SDS011;14714;48.106;11.546;2023-02-03T04:26:46;2.22;;;1.10;;
27199;SDS011;14714;48.106;11.546;2023-02-03T04:29:13;4.90;;;1.67;;
27199;SDS011;14714;48.106;11.546;2023-02-03T04:31:39;3.13;;;1.50;;
27199;SDS011;14714;48.106;11.546;2023-02-03T04:34:06;3.25;;;1.38;;
27199;SDS011;14714;48.106;11.546;2023-02-03T04:36:33;2.00;;;1.30;;
27199;SDS011;14714;48.106;11.546;2023-02-03T04:39:00;3.67;;;1.65;;
27199;SDS011;14714;48.106;11.546;2023-02-03T04:41:27;4.40;;;1.58;;
27199;SDS011;14714;48.106;11.546;2023-02-03T04:43:53;5.03;;;1.40;;
27199;SDS011;14714;48.106;11.546;2023-02-03T04:46:20;3.72;;;1.70;;
27199;SDS011;14714;48.106;11.546;2023-02-03T04:48:47;3.95;;;1.50;;
27199;SDS011;14714;48.106;11.546;2023-02-03T04:51:14;3.67;;;1.75;;
27199;SDS011;14714;48.106;11.546;2023-02-03T04:53:40;3.42;;;1.55;;
27199;SDS011;14714;48.106;11.546;2023-02-03T04:56:07;3.90;;;1.60;;
27199;SDS011;14714;48.106;11.546;2023-02-03T04:58:35;2.60;;;1.38;;
27199;SDS011;14714;48.106;11.546;2023-02-03T05:01:05;6.95;;;1.60;;
27199;SDS011;14714;48.106;11.546;2023-02-03T05:03:34;4.97;;;1.75;;
27199;SDS011;14714;48.106;11.546;2023-02-03T05:06:01;2.92;;;1.60;;
27199;SDS011;14714;48.106;11.546;2023-02-03T05:08:29;3.03;;;1.40;;
27199;SDS011;14714;48.106;11.546;2023-02-03T05:10:56;2.65;;;1.30;;
27199;SDS011;14714;48.106;11.546;2023-02-03T05:13:24;2.25;;;1.30;;
27199;SDS011;14714;48.106;11.546;2023-02-03T05:15:51;4.10;;;1.50;;
27199;SDS011;14714;48.106;11.546;2023-02-03T05:18:17;2.45;;;1.40;;
27199;SDS011;14714;48.106;11.546;2023-02-03T05:20:44;2.88;;;1.70;;
27199;SDS011;14714;48.106;11.546;2023-02-03T05:23:11;4.10;;;1.70;;
27199;SDS011;14714;48.106;11.546;2023-02-03T05:25:38;4.18;;;1.50;;
27199;SDS011;14714;48.106;11.546;2023-02-03T05:28:04;4.50;;;1.70;;
27199;SDS011;14714;48.106;11.546;2023-02-03T05:30:31;4.70;;;1.65;;
27199;SDS011;14714;48.106;11.546;2023-02-03T05:32:58;3.83;;;1.75;;
27199;SDS011;14714;48.106;11.546;2023-02-03T05:35:25;2.58;;;1.50;;
27199;SDS011;14714;48.106;11.546;2023-02-03T05:37:51;2.33;;;1.40;;
27199;SDS011;14714;48.106;11.546;2023-02-03T05:40:18;4.75;;;1.55;;
27199;SDS011;14714;48.106;11.546;2023-02-03T05:43:03;3.55;;;1.48;;
27199;SDS011;14714;48.106;11.546;2023-02-03T05:45:30;5.50;;;1.80;;
27199;SDS011;14714;48.106;11.546;2023-02-03T05:47:57;3.95;;;1.48;;
27199;SDS011;14714;48.106;11.546;2023-02-03T05:50:24;4.32;;;1.70;;
27199;SDS011;14714;48.106;11.546;2023-02-03T05:52:52;2.83;;;1.50;;
27199;SDS011;14714;48.106;11.546;2023-02-03T05:55:19;2.95;;;1.55;;
27199;SDS011;14714;48.106;11.546;2023-02-03T05:57:45;4.95;;;1.52;;
27199;SDS011;14714;48.106;11.546;2023-02-03T06:00:12;2.45;;;1.40;;
27199;SDS011;14714;48.106;11.546;2023-02-03T06:02:40;2.70;;;1.50;;
27199;SDS011;14714;48.106;11.546;2023-02-03T06:05:06;2.50;;;1.38;;
27199;SDS011;14714;48.106;11.546;2023-02-03T06:07:34;2.28;;;1.30;;
27199;SDS011;14714;48.106;11.546;2023-02-03T06:10:01;5.95;;;1.58;;
27199;SDS011;14714;48.106;11.546;2023-02-03T06:12:28;4.05;;;1.33;;
27199;SDS011;14714;48.106;11.546;2023-02-03T06:14:54;4.45;;;1.50;;
27199;SDS011;14714;48.106;11.546;2023-02-03T06:17:21;3.83;;;1.40;;
27199;SDS011;14714;48.106;11.546;2023-02-03T06:19:48;5.35;;;1.50;;
27199;SDS011;14714;48.106;11.546;2023-02-03T06:22:15;3.15;;;1.40;;
27199;SDS011;14714;48.106;11.546;2023-02-03T06:24:41;3.38;;;1.55;;
27199;SDS011;14714;48.106;11.546;2023-02-03T06:27:09;2.40;;;1.30;;
27199;SDS011;14714;48.106;11.546;2023-02-03T06:29:37;2.97;;;1.52;;
27199;SDS011;14714;48.106;11.546;2023-02-03T06:32:03;3.95;;;1.50;;
27199;SDS011;14714;48.106;11.546;2023-02-03T06:34:31;3.53;;;1.50;;
27199;SDS011;14714;48.106;11.546;2023-02-03T06:36:58;6.57;;;1.40;;
27199;SDS011;14714;48.106;11.546;2023-02-03T06:39:25;6.45;;;1.60;;
27199;SDS011;14714;48.106;11.546;2023-02-03T06:41:52;3.88;;;1.65;;
27199;SDS011;14714;48.106;11.546;2023-02-03T06:44:21;3.22;;;1.38;;
27199;SDS011;14714;48.106;11.546;2023-02-03T06:46:48;4.25;;;2.17;;
27199;SDS011;14714;48.106;11.546;2023-02-03T06:49:16;5.15;;;1.67;;
27199;SDS011;14714;48.106;11.546;2023-02-03T06:51:43;2.85;;;1.30;;
27199;SDS011;14714;48.106;11.546;2023-02-03T06:54:11;3.13;;;1.75;;
27199;SDS011;14714;48.106;11.546;2023-02-03T06:56:38;2.47;;;1.50;;
27199;SDS011;14714;48.106;11.546;2023-02-03T06:59:05;2.53;;;1.50;;
27199;SDS011;14714;48.106;11.546;2023-02-03T07:01:34;5.72;;;1.52;;
27199;SDS011;14714;48.106;11.546;2023-02-03T07:04:01;2.72;;;1.55;;
27199;SDS011;14714;48.106;11.546;2023-02-03T07:06:28;3.38;;;1.90;;
27199;SDS011;14714;48.106;11.546;2023-02-03T07:08:59;2.90;;;1.50;;
27199;SDS011;14714;48.106;11.546;2023-02-03T07:11:27;6.43;;;1.42;;
27199;SDS011;14714;48.106;11.546;2023-02-03T07:13:54;2.42;;;1.15;;
27199;SDS011;14714;48.106;11.546;2023-02-03T07:16:21;3.95;;;1.50;;
27199;SDS011;14714;48.106;11.546;2023-02-03T07:18:48;1.98;;;1.20;;
27199;SDS011;14714;48.106;11.546;2023-02-03T07:21:15;3.33;;;1.38;;
27199;SDS011;14714;48.106;11.546;2023-02-03T07:23:45;3.58;;;1.50;;
27199;SDS011;14714;48.106;11.546;2023-02-03T07:26:12;2.92;;;1.25;;
27199;SDS011;14714;48.106;11.546;2023-02-03T07:28:39;6.20;;;1.70;;
27199;SDS011;14714;48.106;11.546;2023-02-03T07:31:06;2.97;;;1.45;;
27199;SDS011;14714;48.106;11.546;2023-02-03T07:33:36;2.30;;;1.40;;
27199;SDS011;14714;48.106;11.546;2023-02-03T07:36:03;2.13;;;1.27;;
27199;SDS011;14714;48.106;11.546;2023-02-03T07:38:30;2.65;;;1.40;;
27199;SDS011;14714;48.106;11.546;2023-02-03T07:40:58;3.13;;;1.40;;
27199;SDS011;14714;48.106;11.546;2023-02-03T07:43:24;2.35;;;1.55;;
27199;SDS011;14714;48.106;11.546;2023-02-03T07:45:51;2.97;;;1.25;;
27199;SDS011;14714;48.106;11.546;2023-02-03T07:48:18;1.90;;;1.40;;
27199;SDS011;14714;48.106;11.546;2023-02-03T07:50:46;3.40;;;1.60;;
27199;SDS011;14714;48.106;11.546;2023-02-03T07:53:13;5.35;;;1.40;;
27199;SDS011;14714;48.106;11.546;2023-02-03T07:55:41;3.78;;;1.48;;
27199;SDS011;14714;48.106;11.546;2023-02-03T07:58:07;2.47;;;1.55;;
27199;SDS011;14714;48.106;11.546;2023-02-03T08:00:34;4.57;;;1.30;;
27199;SDS011;14714;48.106;11.546;2023-02-03T08:03:01;3.10;;;1.40;;
27199;SDS011;14714;48.106;11.546;2023-02-03T08:05:28;4.38;;;1.48;;
27199;SDS011;14714;48.106;11.546;2023-02-03T08:07:55;3.67;;;1.30;;
27199;SDS011;14714;48.106;11.546;2023-02-03T08:10:23;3.92;;;1.38;;
27199;SDS011;14714;48.106;11.546;2023-02-03T08:12:53;4.82;;;1.65;;
27199;SDS011;14714;48.106;11.546;2023-02-03T08:15:21;2.83;;;1.30;;
27199;SDS011;14714;48.106;11.546;2023-02-03T08:17:48;4.18;;;1.50;;
27199;SDS011;14714;48.106;11.546;2023-02-03T08:20:15;2.95;;;1.20;;
27199;SDS011;14714;48.106;11.546;2023-02-03T08:22:43;1.33;;;1.08;;
27199;SDS011;14714;48.106;11.546;2023-02-03T08:25:10;1.67;;;1.30;;
27199;SDS011;14714;48.106;11.546;2023-02-03T08:27:37;2.53;;;1.30;;
27199;SDS011;14714;48.106;11.546;2023-02-03T08:30:05;2.47;;;1.30;;
27199;SDS011;14714;48.106;11.546;2023-02-03T08:32:33;3.35;;;1.10;;
27199;SDS011;14714;48.106;11.546;2023-02-03T08:35:00;2.30;;;1.20;;
27199;SDS011;14714;48.106;11.546;2023-02-03T08:37:27;3.78;;;1.00;;
27199;SDS011;14714;48.106;11.546;2023-02-03T08:39:57;3.00;;;1.27;;
27199;SDS011;14714;48.106;11.546;2023-02-03T08:42:25;2.05;;;1.10;;
27199;SDS011;14714;48.106;11.546;2023-02-03T08:44:51;2.47;;;1.38;;
27199;SDS011;14714;48.106;11.546;2023-02-03T08:47:18;3.55;;;1.20;;
27199;SDS011;14714;48.106;11.546;2023-02-03T08:49:45;3.05;;;1.50;;
27199;SDS011;14714;48.106;11.546;2023-02-03T08:52:12;2.25;;;1.40;;
27199;SDS011;14714;48.106;11.546;2023-02-03T08:54:39;3.30;;;1.45;;
27199;SDS011;14714;48.106;11.546;2023-02-03T08:57:06;3.35;;;1.85;;
27199;SDS011;14714;48.106;11.546;2023-02-03T08:59:33;3.78;;;1.45;;
27199;SDS011;14714;48.106;11.546;2023-02-03T09:02:03;3.30;;;1.38;;
27199;SDS011;14714;48.106;11.546;2023-02-03T09:04:30;3.63;;;1.42;;
27199;SDS011;14714;48.106;11.546;2023-02-03T09:06:58;3.55;;;1.20;;
27199;SDS011;14714;48.106;11.546;2023-02-03T09:09:27;1.90;;;1.23;;
27199;SDS011;14714;48.106;11.546;2023-02-03T09:11:55;1.88;;;1.20;;
27199;SDS011;14714;48.106;11.546;2023-02-03T09:14:30;3.08;;;1.40;;
27199;SDS011;14714;48.106;11.546;2023-02-03T09:16:58;2.05;;;1.25;;
27199;SDS011;14714;48.106;11.546;2023-02-03T09:19:27;3.00;;;1.60;;
27199;SDS011;14714;48.106;11.546;2023-02-03T09:21:54;2.67;;;1.20;;
27199;SDS011;14714;48.106;11.546;2023-02-03T09:24:22;3.38;;;1.42;;
27199;SDS011;14714;48.106;11.546;2023-02-03T09:26:50;1.92;;;1.38;;
27199;SDS011;14714;48.106;11.546;2023-02-03T09:29:17;3.78;;;1.30;;
27199;SDS011;14714;48.106;11.546;2023-02-03T09:31:44;5.80;;;1.40;;
27199;SDS011;14714;48.106;11.546;2023-02-03T09:34:13;2.17;;;1.30;;
27199;SDS011;14714;48.106;11.546;2023-02-03T09:36:40;3.35;;;1.10;;
27199;SDS011;14714;48.106;11.546;2023-02-03T09:39:08;4.45;;;1.58;;
27199;SDS011;14714;48.106;11.546;2023-02-03T09:47:39;2.17;;;1.30;;
27199;SDS011;14714;48.106;11.546;2023-02-03T09:52:55;2.45;;;1.20;;
27199;SDS011;14714;48.106;11.546;2023-02-03T09:55:34;1.75;;;1.02;;
27199;SDS011;14714;48.106;11.546;2023-02-03T09:58:05;2.45;;;1.35;;
27199;SDS011;14714;48.106;11.546;2023-02-03T10:00:58;2.45;;;1.20;;
27199;SDS011;14714;48.106;11.546;2023-02-03T10:17:52;4.07;;;1.95;;
27199;SDS011;14714;48.106;11.546;2023-02-03T10:20:28;2.17;;;1.20;;
27199;SDS011;14714;48.106;11.546;2023-02-03T10:23:12;2.40;;;1.42;;
27199;SDS011;14714;48.106;11.546;2023-02-03T10:25:52;2.45;;;1.10;;
27199;SDS011;14714;48.106;11.546;2023-02-03T10:28:23;2.83;;;1.42;;
27199;SDS011;14714;48.106;11.546;2023-02-03T10:30:55;4.03;;;1.55;;
27199;SDS011;14714;48.106;11.546;2023-02-03T10:33:24;4.53;;;1.38;;
27199;SDS011;14714;48.106;11.546;2023-02-03T10:41:01;1.35;;;1.25;;
27199;SDS011;14714;48.106;11.546;2023-02-03T10:43:29;2.03;;;1.15;;
27199;SDS011;14714;48.106;11.546;2023-02-03T10:48:47;3.22;;;1.30;;
27199;SDS011;14714;48.106;11.546;2023-02-03T10:51:24;2.10;;;1.38;;
27199;SDS011;14714;48.106;11.546;2023-02-03T10:53:57;2.17;;;1.20;;
27199;SDS011;14714;48.106;11.546;2023-02-03T10:56:26;2.72;;;1.40;;
27199;SDS011;14714;48.106;11.546;2023-02-03T10:58:56;3.67;;;1.48;;
27199;SDS011;14714;48.106;11.546;2023-02-03T11:01:26;2.80;;;1.42;;
27199;SDS011;14714;48.106;11.546;2023-02-03T11:04:06;4.65;;;1.58;;
27199;SDS011;14714;48.106;11.546;2023-02-03T11:06:53;2.45;;;1.40;;
27199;SDS011;14714;48.106;11.546;2023-02-03T11:12:06;2.95;;;1.50;;
27199;SDS011;14714;48.106;11.546;2023-02-03T11:14:42;3.47;;;1.48;;
27199;SDS011;14714;48.106;11.546;2023-02-03T11:17:24;2.78;;;1.40;;
27199;SDS011;14714;48.106;11.546;2023-02-03T11:19:53;2.38;;;1.30;;
27199;SDS011;14714;48.106;11.546;2023-02-03T11:22:29;3.67;;;1.38;;
27199;SDS011;14714;48.106;11.546;2023-02-03T11:25:22;3.70;;;1.60;;
27199;SDS011;14714;48.106;11.546;2023-02-03T11:27:54;2.47;;;1.20;;
27199;SDS011;14714;48.106;11.546;2023-02-03T11:30:23;3.38;;;1.42;;
27199;SDS011;14714;48.106;11.546;2023-02-03T11:32:55;2.75;;;1.55;;
27199;SDS011;14714;48.106;11.546;2023-02-03T11:35:26;2.17;;;1.30;;
27199;SDS011;14714;48.106;11.546;2023-02-03T11:37:56;5.45;;;1.30;;
27199;SDS011;14714;48.106;11.546;2023-02-03T11:40:31;2.00;;;1.27;;
27199;SDS011;14714;48.106;11.546;2023-02-03T11:43:04;2.13;;;1.40;;
27199;SDS011;14714;48.106;11.546;2023-02-03T11:45:46;3.40;;;1.55;;
27199;SDS011;14714;48.106;11.546;2023-02-03T12:05:22;2.63;;;1.23;;
27199;SDS011;14714;48.106;11.546;2023-02-03T12:07:55;3.03;;;1.02;;
27199;SDS011;14714;48.106;11.546;2023-02-03T12:14:03;1.75;;;1.00;;
27199;SDS011;14714;48.106;11.546;2023-02-03T12:16:57;3.30;;;1.15;;
27199;SDS011;14714;48.106;11.546;2023-02-03T12:22:26;1.42;;;1.08;;
27199;SDS011;14714;48.106;11.546;2023-02-03T12:25:32;2.33;;;1.30;;
27199;SDS011;14714;48.106;11.546;2023-02-03T12:31:08;1.85;;;1.10;;
27199;SDS011;14714;48.106;11.546;2023-02-03T12:33:51;2.63;;;1.00;;
27199;SDS011;14714;48.106;11.546;2023-02-03T12:36:25;2.93;;;1.00;;
27199;SDS011;14714;48.106;11.546;2023-02-03T12:38:58;2.42;;;1.05;;
27199;SDS011;14714;48.106;11.546;2023-02-03T12:41:39;3.63;;;1.05;;
27199;SDS011;14714;48.106;11.546;2023-02-03T12:44:15;0.88;;;0.88;;
27199;SDS011;14714;48.106;11.546;2023-02-03T12:46:59;2.42;;;1.15;;
27199;SDS011;14714;48.106;11.546;2023-02-03T12:49:38;1.98;;;0.90;;
27199;SDS011;14714;48.106;11.546;2023-02-03T12:52:11;2.58;;;0.95;;
27199;SDS011;14714;48.106;11.546;2023-02-03T12:54:58;2.40;;;1.23;;
27199;SDS011;14714;48.106;11.546;2023-02-03T12:57:33;1.58;;;1.05;;
27199;SDS011;14714;48.106;11.546;2023-02-03T13:00:09;1.17;;;1.00;;
27199;SDS011;14714;48.106;11.546;2023-02-03T13:05:19;3.08;;;1.23;;
27199;SDS011;14714;48.106;11.546;2023-02-03T13:07:54;2.13;;;1.20;;
27199;SDS011;14714;48.106;11.546;2023-02-03T13:10:36;2.78;;;1.10;;
27199;SDS011;14714;48.106;11.546;2023-02-03T13:13:16;1.88;;;1.10;;
27199;SDS011;14714;48.106;11.546;2023-02-03T13:15:51;3.47;;;1.20;;
27199;SDS011;14714;48.106;11.546;2023-02-03T13:18:25;2.78;;;1.20;;
27199;SDS011;14714;48.106;11.546;2023-02-03T13:20:57;4.95;;;1.45;;
27199;SDS011;14714;48.106;11.546;2023-02-03T13:23:24;3.97;;;1.10;;
27199;SDS011;14714;48.106;11.546;2023-02-03T13:34:27;2.55;;;1.25;;
27199;SDS011;14714;48.106;11.546;2023-02-03T13:37:26;2.13;;;1.20;;
27199;SDS011;14714;48.106;11.546;2023-02-03T13:43:03;2.35;;;1.08;;
27199;SDS011;14714;48.106;11.546;2023-02-03T13:45:42;2.65;;;1.20;;
27199;SDS011;14714;48.106;11.546;2023-02-03T13:48:14;1.58;;;1.20;;
27199;SDS011;14714;48.106;11.546;2023-02-03T13:50:44;3.47;;;1.27;;
27199;SDS011;14714;48.106;11.546;2023-02-03T13:53:22;2.10;;;1.10;;
27199;SDS011;14714;48.106;11.546;2023-02-03T13:58:26;1.67;;;1.00;;
27199;SDS011;14714;48.106;11.546;2023-02-03T14:00:58;2.25;;;1.33;;
27199;SDS011;14714;48.106;11.546;2023-02-03T14:05:55;2.35;;;1.35;;
27199;SDS011;14714;48.106;11.546;2023-02-03T14:16:33;2.55;;;1.10;;
27199;SDS011;14714;48.106;11.546;2023-02-03T14:19:09;1.50;;;1.10;;
27199;SDS011;14714;48.106;11.546;2023-02-03T14:22:00;2.22;;;1.10;;
27199;SDS011;14714;48.106;11.546;2023-02-03T14:24:43;4.43;;;1.35;;
27199;SDS011;14714;48.106;11.546;2023-02-03T14:29:43;3.15;;;1.17;;
27199;SDS011;14714;48.106;11.546;2023-02-03T14:32:11;1.80;;;1.10;;
27199;SDS011;14714;48.106;11.546;2023-02-03T14:34:42;3.15;;;0.95;;
27199;SDS011;14714;48.106;11.546;2023-02-03T14:42:27;2.33;;;1.23;;
27199;SDS011;14714;48.106;11.546;2023-02-03T15:01:22;2.08;;;1.30;;
27199;SDS011;14714;48.106;11.546;2023-02-03T15:06:39;2.50;;;1.40;;
27199;SDS011;14714;48.106;11.546;2023-02-03T15:11:48;3.67;;;1.33;;
27199;SDS011;14714;48.106;11.546;2023-02-03T15:14:25;3.83;;;1.42;;
27199;SDS011;14714;48.106;11.546;2023-02-03T15:16:57;2.53;;;1.60;;
27199;SDS011;14714;48.106;11.546;2023-02-03T15:19:33;3.60;;;1.48;;
27199;SDS011;14714;48.106;11.546;2023-02-03T15:22:16;2.38;;;1.33;;
27199;SDS011;14714;48.106;11.546;2023-02-03T15:24:47;2.35;;;1.30;;
27199;SDS011;14714;48.106;11.546;2023-02-03T15:27:21;3.35;;;1.88;;
27199;SDS011;14714;48.106;11.546;2023-02-03T15:29:49;2.42;;;1.30;;
27199;SDS011;14714;48.106;11.546;2023-02-03T15:32:18;4.28;;;1.40;;
27199;SDS011;14714;48.106;11.546;2023-02-03T15:35:08;1.80;;;1.35;;
27199;SDS011;14714;48.106;11.546;2023-02-03T15:37:53;2.80;;;1.60;;
27199;SDS011;14714;48.106;11.546;2023-02-03T15:40:27;5.55;;;2.03;;
27199;SDS011;14714;48.106;11.546;2023-02-03T15:49:24;3.53;;;1.30;;
27199;SDS011;14714;48.106;11.546;2023-02-03T15:51:45;3.05;;;1.20;;
27199;SDS011;14714;48.106;11.546;2023-02-03T15:54:21;2.28;;;1.10;;
27199;SDS011;14714;48.106;11.546;2023-02-03T15:56:57;3.15;;;1.30;;
27199;SDS011;14714;48.106;11.546;2023-02-03T15:59:37;2.22;;;1.20;;
27199;SDS011;14714;48.106;11.546;2023-02-03T16:02:20;1.55;;;1.08;;
27199;SDS011;14714;48.106;11.546;2023-02-03T16:04:53;2.95;;;1.25;;
27199;SDS011;14714;48.106;11.546;2023-02-03T16:07:21;2.67;;;1.30;;
27199;SDS011;14714;48.106;11.546;2023-02-03T16:09:51;2.38;;;1.25;;
27199;SDS011;14714;48.106;11.546;2023-02-03T16:14:56;1.48;;;1.20;;
27199;SDS011;14714;48.106;11.546;2023-02-03T16:17:36;6.35;;;2.80;;
27199;SDS011;14714;48.106;11.546;2023-02-03T16:22:57;2.58;;;1.42;;
27199;SDS011;14714;48.106;11.546;2023-02-03T16:25:30;2.22;;;1.50;;
27199;SDS011;14714;48.106;11.546;2023-02-03T16:34:10;3.95;;;1.52;;
27199;SDS011;14714;48.106;11.546;2023-02-03T16:36:58;3.75;;;1.65;;
27199;SDS011;14714;48.106;11.546;2023-02-03T16:39:44;2.47;;;1.52;;
27199;SDS011;14714;48.106;11.546;2023-02-03T16:42:36;4.20;;;1.30;;
27199;SDS011;14714;48.106;11.546;2023-02-03T16:45:23;3.00;;;1.50;;
27199;SDS011;14714;48.106;11.546;2023-02-03T16:48:10;2.38;;;1.55;;
27199;SDS011;14714;48.106;11.546;2023-02-03T16:50:56;5.50;;;1.98;;
27199;SDS011;14714;48.106;11.546;2023-02-03T16:53:30;3.25;;;1.50;;
27199;SDS011;14714;48.106;11.546;2023-02-03T16:55:59;2.05;;;1.40;;
27199;SDS011;14714;48.106;11.546;2023-02-03T16:58:29;3.30;;;1.40;;
27199;SDS011;14714;48.106;11.546;2023-02-03T17:00:57;2.05;;;1.30;;
27199;SDS011;14714;48.106;11.546;2023-02-03T17:03:26;2.75;;;1.10;;
27199;SDS011;14714;48.106;11.546;2023-02-03T17:05:54;2.60;;;1.48;;
27199;SDS011;14714;48.106;11.546;2023-02-03T17:08:23;3.33;;;1.30;;
27199;SDS011;14714;48.106;11.546;2023-02-03T17:10:51;1.98;;;1.17;;
27199;SDS011;14714;48.106;11.546;2023-02-03T17:13:19;1.45;;;1.20;;
27199;SDS011;14714;48.106;11.546;2023-02-03T17:15:48;5.30;;;1.40;;
27199;SDS011;14714;48.106;11.546;2023-02-03T17:18:18;3.33;;;1.38;;
27199;SDS011;14714;48.106;11.546;2023-02-03T17:20:45;1.67;;;1.33;;
27199;SDS011;14714;48.106;11.546;2023-02-03T17:23:12;2.67;;;1.45;;
27199;SDS011;14714;48.106;11.546;2023-02-03T17:25:44;2.42;;;1.48;;
27199;SDS011;14714;48.106;11.546;2023-02-03T17:28:12;2.45;;;1.60;;
27199;SDS011;14714;48.106;11.546;2023-02-03T17:30:39;4.35;;;1.50;;
27199;SDS011;14714;48.106;11.546;2023-02-03T17:33:07;4.45;;;1.30;;
27199;SDS011;14714;48.106;11.546;2023-02-03T17:35:38;2.88;;;1.27;;
27199;SDS011;14714;48.106;11.546;2023-02-03T17:38:06;1.83;;;1.30;;
27199;SDS011;14714;48.106;11.546;2023-02-03T17:40:33;3.03;;;1.38;;